sensor_id;sensor_type;location;lat;lon;timestamp;P1;durP1;ratioP1;P2;durP2;ratioP2
21107;SDS011;10712;52.944;9.098;2024-02-21T00:00:55;27.27;;;14.23;;
21107;SDS011;10712;52.944;9.098;2024-02-21T00:03:21;36.70;;;16.15;;
21107;SDS011;10712;52.944;9.098;2024-02-21T00:05:47;26.25;;;15.73;;
21107;SDS011;10712;52.944;9.098;2024-02-21T00:08:13;28.90;;;15.65;;
21107;SDS011;10712;52.944;9.098;2024-02-21T00:10:38;25.52;;;14.73;;
21107;SDS011;10712;52.944;9.098;2024-02-21T00:13:04;32.97;;;16.17;;
21107;SDS011;10712;52.944;9.098;2024-02-21T00:15:30;27.40;;;15.00;;
21107;SDS011;10712;52.944;9.098;2024-02-21T00:17:56;31.48;;;15.93;;
21107;SDS011;10712;52.944;9.098;2024-02-21T00:20:22;25.90;;;14.27;;
21107;SDS011;10712;52.944;9.098;2024-02-21T00:22:48;30.63;;;15.10;;
21107;SDS011;10712;52.944;9.098;2024-02-21T00:25:13;27.63;;;16.65;;
21107;SDS011;10712;52.944;9.098;2024-02-21T00:27:39;29.02;;;15.15;;
21107;SDS011;10712;52.944;9.098;2024-02-21T00:30:05;30.85;;;15.73;;
21107;SDS011;10712;52.944;9.098;2024-02-21T00:32:31;31.20;;;15.27;;
21107;SDS011;10712;52.944;9.098;2024-02-21T00:34:59;35.50;;;16.92;;
21107;SDS011;10712;52.944;9.098;2024-02-21T00:37:26;31.75;;;15.73;;
21107;SDS011;10712;52.944;9.098;2024-02-21T00:39:53;33.53;;;16.20;;
21107;SDS011;10712;52.944;9.098;2024-02-21T00:42:20;27.63;;;15.65;;
21107;SDS011;10712;52.944;9.098;2024-02-21T00:44:46;30.25;;;15.90;;
21107;SDS011;10712;52.944;9.098;2024-02-21T00:47:12;26.98;;;16.35;;
21107;SDS011;10712;52.944;9.098;2024-02-21T00:49:38;29.92;;;17.15;;
21107;SDS011;10712;52.944;9.098;2024-02-21T00:52:04;27.58;;;17.05;;
21107;SDS011;10712;52.944;9.098;2024-02-21T00:54:30;33.53;;;16.30;;
21107;SDS011;10712;52.944;9.098;2024-02-21T00:56:56;28.92;;;17.67;;
21107;SDS011;10712;52.944;9.098;2024-02-21T00:59:21;32.35;;;16.73;;
21107;SDS011;10712;52.944;9.098;2024-02-21T01:01:47;33.38;;;17.30;;
21107;SDS011;10712;52.944;9.098;2024-02-21T01:04:13;29.08;;;16.33;;
21107;SDS011;10712;52.944;9.098;2024-02-21T01:06:39;32.53;;;18.80;;
21107;SDS011;10712;52.944;9.098;2024-02-21T01:09:07;34.92;;;18.02;;
21107;SDS011;10712;52.944;9.098;2024-02-21T01:11:33;37.63;;;19.17;;
21107;SDS011;10712;52.944;9.098;2024-02-21T01:13:59;38.45;;;19.38;;
21107;SDS011;10712;52.944;9.098;2024-02-21T01:16:25;35.03;;;17.73;;
21107;SDS011;10712;52.944;9.098;2024-02-21T01:18:51;34.67;;;19.83;;
21107;SDS011;10712;52.944;9.098;2024-02-21T01:21:17;34.58;;;18.75;;
21107;SDS011;10712;52.944;9.098;2024-02-21T01:23:43;39.15;;;19.48;;
21107;SDS011;10712;52.944;9.098;2024-02-21T01:26:09;39.10;;;18.80;;
21107;SDS011;10712;52.944;9.098;2024-02-21T01:28:38;35.60;;;19.23;;
21107;SDS011;10712;52.944;9.098;2024-02-21T01:31:04;40.00;;;19.65;;
21107;SDS011;10712;52.944;9.098;2024-02-21T01:33:29;35.33;;;18.10;;
21107;SDS011;10712;52.944;9.098;2024-02-21T01:36:00;27.85;;;17.90;;
21107;SDS011;10712;52.944;9.098;2024-02-21T01:38:27;33.25;;;18.52;;
21107;SDS011;10712;52.944;9.098;2024-02-21T01:40:54;39.35;;;19.35;;
21107;SDS011;10712;52.944;9.098;2024-02-21T01:43:20;39.15;;;19.25;;
21107;SDS011;10712;52.944;9.098;2024-02-21T01:45:48;35.08;;;19.55;;
21107;SDS011;10712;52.944;9.098;2024-02-21T01:48:19;31.27;;;18.83;;
21107;SDS011;10712;52.944;9.098;2024-02-21T01:50:46;41.70;;;18.75;;
21107;SDS011;10712;52.944;9.098;2024-02-21T01:53:24;35.20;;;18.80;;
21107;SDS011;10712;52.944;9.098;2024-02-21T01:55:55;43.55;;;20.05;;
21107;SDS011;10712;52.944;9.098;2024-02-21T01:58:21;31.55;;;17.52;;
21107;SDS011;10712;52.944;9.098;2024-02-21T02:00:48;34.70;;;18.45;;
21107;SDS011;10712;52.944;9.098;2024-02-21T02:03:16;49.25;;;20.25;;
21107;SDS011;10712;52.944;9.098;2024-02-21T02:05:45;38.97;;;20.60;;
21107;SDS011;10712;52.944;9.098;2024-02-21T02:08:13;33.05;;;18.08;;
21107;SDS011;10712;52.944;9.098;2024-02-21T02:10:44;31.92;;;18.60;;
21107;SDS011;10712;52.944;9.098;2024-02-21T02:13:13;34.47;;;19.08;;
21107;SDS011;10712;52.944;9.098;2024-02-21T02:18:13;34.47;;;18.25;;
21107;SDS011;10712;52.944;9.098;2024-02-21T02:20:41;39.33;;;19.23;;
21107;SDS011;10712;52.944;9.098;2024-02-21T02:25:59;35.55;;;19.77;;
21107;SDS011;10712;52.944;9.098;2024-02-21T02:28:26;35.75;;;19.70;;
21107;SDS011;10712;52.944;9.098;2024-02-21T02:30:52;32.08;;;18.23;;
21107;SDS011;10712;52.944;9.098;2024-02-21T02:33:18;30.30;;;16.45;;
21107;SDS011;10712;52.944;9.098;2024-02-21T02:35:44;30.83;;;16.90;;
21107;SDS011;10712;52.944;9.098;2024-02-21T02:38:11;28.95;;;17.48;;
21107;SDS011;10712;52.944;9.098;2024-02-21T02:40:38;35.35;;;17.25;;
21107;SDS011;10712;52.944;9.098;2024-02-21T02:43:08;32.55;;;18.02;;
21107;SDS011;10712;52.944;9.098;2024-02-21T02:45:34;29.00;;;16.65;;
21107;SDS011;10712;52.944;9.098;2024-02-21T02:48:00;32.67;;;17.35;;
21107;SDS011;10712;52.944;9.098;2024-02-21T02:50:26;34.95;;;18.50;;
21107;SDS011;10712;52.944;9.098;2024-02-21T02:52:53;27.73;;;16.90;;
21107;SDS011;10712;52.944;9.098;2024-02-21T02:55:19;34.15;;;17.63;;
21107;SDS011;10712;52.944;9.098;2024-02-21T02:57:45;29.55;;;17.70;;
21107;SDS011;10712;52.944;9.098;2024-02-21T03:00:12;34.72;;;17.67;;
21107;SDS011;10712;52.944;9.098;2024-02-21T03:02:40;28.98;;;16.95;;
21107;SDS011;10712;52.944;9.098;2024-02-21T03:05:11;29.50;;;16.40;;
21107;SDS011;10712;52.944;9.098;2024-02-21T03:07:40;33.28;;;16.60;;
21107;SDS011;10712;52.944;9.098;2024-02-21T03:10:07;24.85;;;15.77;;
21107;SDS011;10712;52.944;9.098;2024-02-21T03:12:33;28.58;;;18.23;;
21107;SDS011;10712;52.944;9.098;2024-02-21T03:14:59;29.13;;;16.60;;
21107;SDS011;10712;52.944;9.098;2024-02-21T03:17:25;31.15;;;16.70;;
21107;SDS011;10712;52.944;9.098;2024-02-21T03:19:54;35.20;;;17.65;;
21107;SDS011;10712;52.944;9.098;2024-02-21T03:22:25;32.30;;;16.67;;
21107;SDS011;10712;52.944;9.098;2024-02-21T03:24:50;30.55;;;16.80;;
21107;SDS011;10712;52.944;9.098;2024-02-21T03:27:16;30.63;;;17.65;;
21107;SDS011;10712;52.944;9.098;2024-02-21T03:29:42;28.02;;;17.25;;
21107;SDS011;10712;52.944;9.098;2024-02-21T03:32:08;32.22;;;18.42;;
21107;SDS011;10712;52.944;9.098;2024-02-21T03:34:34;30.63;;;18.48;;
21107;SDS011;10712;52.944;9.098;2024-02-21T03:37:00;30.75;;;17.23;;
21107;SDS011;10712;52.944;9.098;2024-02-21T03:39:26;27.27;;;17.90;;
21107;SDS011;10712;52.944;9.098;2024-02-21T03:41:52;30.80;;;17.05;;
21107;SDS011;10712;52.944;9.098;2024-02-21T03:44:18;28.35;;;18.27;;
21107;SDS011;10712;52.944;9.098;2024-02-21T03:46:44;29.85;;;17.73;;
21107;SDS011;10712;52.944;9.098;2024-02-21T03:49:10;23.48;;;17.17;;
21107;SDS011;10712;52.944;9.098;2024-02-21T03:51:36;30.48;;;16.77;;
21107;SDS011;10712;52.944;9.098;2024-02-21T03:54:02;24.05;;;17.63;;
21107;SDS011;10712;52.944;9.098;2024-02-21T03:56:28;30.95;;;17.25;;
21107;SDS011;10712;52.944;9.098;2024-02-21T03:58:54;29.33;;;17.17;;
21107;SDS011;10712;52.944;9.098;2024-02-21T04:01:20;30.60;;;16.58;;
21107;SDS011;10712;52.944;9.098;2024-02-21T04:03:46;30.60;;;17.20;;
21107;SDS011;10712;52.944;9.098;2024-02-21T04:06:12;27.42;;;16.65;;
21107;SDS011;10712;52.944;9.098;2024-02-21T04:08:38;26.75;;;16.67;;
21107;SDS011;10712;52.944;9.098;2024-02-21T04:11:04;28.98;;;18.48;;
21107;SDS011;10712;52.944;9.098;2024-02-21T04:13:30;29.70;;;17.38;;
21107;SDS011;10712;52.944;9.098;2024-02-21T04:15:56;29.08;;;17.27;;
21107;SDS011;10712;52.944;9.098;2024-02-21T04:18:22;31.73;;;18.02;;
21107;SDS011;10712;52.944;9.098;2024-02-21T04:20:47;32.80;;;16.70;;
21107;SDS011;10712;52.944;9.098;2024-02-21T04:23:13;31.60;;;17.48;;
21107;SDS011;10712;52.944;9.098;2024-02-21T04:25:39;31.35;;;16.52;;
21107;SDS011;10712;52.944;9.098;2024-02-21T04:28:05;27.05;;;16.88;;
21107;SDS011;10712;52.944;9.098;2024-02-21T04:30:31;28.33;;;17.15;;
21107;SDS011;10712;52.944;9.098;2024-02-21T04:32:56;25.63;;;15.60;;
21107;SDS011;10712;52.944;9.098;2024-02-21T04:35:22;31.73;;;17.63;;
21107;SDS011;10712;52.944;9.098;2024-02-21T04:37:49;30.55;;;17.10;;
21107;SDS011;10712;52.944;9.098;2024-02-21T04:40:15;22.70;;;16.55;;
21107;SDS011;10712;52.944;9.098;2024-02-21T04:42:41;27.90;;;17.05;;
21107;SDS011;10712;52.944;9.098;2024-02-21T04:45:08;26.38;;;16.52;;
21107;SDS011;10712;52.944;9.098;2024-02-21T04:47:34;29.13;;;15.68;;
21107;SDS011;10712;52.944;9.098;2024-02-21T04:50:00;29.67;;;17.20;;
21107;SDS011;10712;52.944;9.098;2024-02-21T04:52:26;31.10;;;16.63;;
21107;SDS011;10712;52.944;9.098;2024-02-21T04:54:52;29.02;;;17.45;;
21107;SDS011;10712;52.944;9.098;2024-02-21T04:57:18;26.63;;;17.73;;
21107;SDS011;10712;52.944;9.098;2024-02-21T04:59:44;25.02;;;15.90;;
21107;SDS011;10712;52.944;9.098;2024-02-21T05:02:10;29.38;;;16.90;;
21107;SDS011;10712;52.944;9.098;2024-02-21T05:04:36;29.52;;;16.85;;
21107;SDS011;10712;52.944;9.098;2024-02-21T05:07:03;24.88;;;16.38;;
21107;SDS011;10712;52.944;9.098;2024-02-21T05:09:30;25.77;;;15.98;;
21107;SDS011;10712;52.944;9.098;2024-02-21T05:11:56;26.83;;;15.80;;
21107;SDS011;10712;52.944;9.098;2024-02-21T05:14:24;30.05;;;16.50;;
21107;SDS011;10712;52.944;9.098;2024-02-21T05:16:52;28.00;;;15.00;;
21107;SDS011;10712;52.944;9.098;2024-02-21T05:19:18;24.05;;;16.33;;
21107;SDS011;10712;52.944;9.098;2024-02-21T05:21:44;26.83;;;16.15;;
21107;SDS011;10712;52.944;9.098;2024-02-21T05:24:10;23.65;;;14.65;;
21107;SDS011;10712;52.944;9.098;2024-02-21T05:26:37;26.58;;;16.15;;
21107;SDS011;10712;52.944;9.098;2024-02-21T05:29:03;24.15;;;15.82;;
21107;SDS011;10712;52.944;9.098;2024-02-21T05:34:15;19.67;;;15.00;;
21107;SDS011;10712;52.944;9.098;2024-02-21T05:36:42;25.35;;;16.80;;
21107;SDS011;10712;52.944;9.098;2024-02-21T05:39:08;26.42;;;16.10;;
21107;SDS011;10712;52.944;9.098;2024-02-21T05:41:33;21.10;;;15.07;;
21107;SDS011;10712;52.944;9.098;2024-02-21T05:43:59;24.65;;;15.85;;
21107;SDS011;10712;52.944;9.098;2024-02-21T05:46:25;23.60;;;14.70;;
21107;SDS011;10712;52.944;9.098;2024-02-21T05:48:51;21.45;;;15.10;;
21107;SDS011;10712;52.944;9.098;2024-02-21T05:51:16;21.90;;;15.43;;
21107;SDS011;10712;52.944;9.098;2024-02-21T05:53:42;22.88;;;14.98;;
21107;SDS011;10712;52.944;9.098;2024-02-21T05:56:11;23.65;;;14.40;;
21107;SDS011;10712;52.944;9.098;2024-02-21T05:58:40;21.10;;;14.93;;
21107;SDS011;10712;52.944;9.098;2024-02-21T06:01:07;21.42;;;14.35;;
21107;SDS011;10712;52.944;9.098;2024-02-21T06:03:33;20.17;;;14.23;;
21107;SDS011;10712;52.944;9.098;2024-02-21T06:05:59;19.27;;;13.85;;
21107;SDS011;10712;52.944;9.098;2024-02-21T06:08:27;22.48;;;14.13;;
21107;SDS011;10712;52.944;9.098;2024-02-21T06:10:53;20.42;;;13.95;;
21107;SDS011;10712;52.944;9.098;2024-02-21T06:13:22;19.02;;;13.73;;
21107;SDS011;10712;52.944;9.098;2024-02-21T06:15:49;18.90;;;13.63;;
21107;SDS011;10712;52.944;9.098;2024-02-21T06:18:19;22.88;;;12.73;;
21107;SDS011;10712;52.944;9.098;2024-02-21T06:20:46;16.02;;;12.85;;
21107;SDS011;10712;52.944;9.098;2024-02-21T06:23:12;17.83;;;13.15;;
21107;SDS011;10712;52.944;9.098;2024-02-21T06:25:41;21.00;;;13.52;;
21107;SDS011;10712;52.944;9.098;2024-02-21T06:28:08;17.98;;;13.13;;
21107;SDS011;10712;52.944;9.098;2024-02-21T06:30:34;21.55;;;14.23;;
21107;SDS011;10712;52.944;9.098;2024-02-21T06:33:01;18.33;;;13.25;;
21107;SDS011;10712;52.944;9.098;2024-02-21T06:35:27;18.75;;;14.20;;
21107;SDS011;10712;52.944;9.098;2024-02-21T06:37:54;18.42;;;12.95;;
21107;SDS011;10712;52.944;9.098;2024-02-21T06:40:23;23.52;;;14.73;;
21107;SDS011;10712;52.944;9.098;2024-02-21T06:42:49;19.85;;;15.10;;
21107;SDS011;10712;52.944;9.098;2024-02-21T06:45:15;20.63;;;14.10;;
21107;SDS011;10712;52.944;9.098;2024-02-21T06:47:42;20.58;;;13.88;;
21107;SDS011;10712;52.944;9.098;2024-02-21T06:50:08;23.58;;;14.32;;
21107;SDS011;10712;52.944;9.098;2024-02-21T06:52:35;18.27;;;13.52;;
21107;SDS011;10712;52.944;9.098;2024-02-21T06:55:01;21.73;;;14.50;;
21107;SDS011;10712;52.944;9.098;2024-02-21T06:57:31;15.87;;;12.97;;
21107;SDS011;10712;52.944;9.098;2024-02-21T06:59:56;24.45;;;14.82;;
21107;SDS011;10712;52.944;9.098;2024-02-21T07:02:22;19.30;;;15.10;;
21107;SDS011;10712;52.944;9.098;2024-02-21T07:04:48;20.85;;;15.48;;
21107;SDS011;10712;52.944;9.098;2024-02-21T07:07:15;20.35;;;14.25;;
21107;SDS011;10712;52.944;9.098;2024-02-21T07:09:40;20.58;;;14.82;;
21107;SDS011;10712;52.944;9.098;2024-02-21T07:12:06;19.83;;;14.55;;
21107;SDS011;10712;52.944;9.098;2024-02-21T07:14:32;26.52;;;16.27;;
21107;SDS011;10712;52.944;9.098;2024-02-21T07:16:58;24.00;;;15.60;;
21107;SDS011;10712;52.944;9.098;2024-02-21T07:19:24;25.90;;;15.95;;
21107;SDS011;10712;52.944;9.098;2024-02-21T07:21:50;25.83;;;17.15;;
21107;SDS011;10712;52.944;9.098;2024-02-21T07:24:16;24.77;;;16.88;;
21107;SDS011;10712;52.944;9.098;2024-02-21T07:26:42;25.45;;;18.05;;
21107;SDS011;10712;52.944;9.098;2024-02-21T07:29:09;23.70;;;16.65;;
21107;SDS011;10712;52.944;9.098;2024-02-21T07:31:41;25.20;;;16.95;;
21107;SDS011;10712;52.944;9.098;2024-02-21T07:34:08;27.25;;;16.80;;
21107;SDS011;10712;52.944;9.098;2024-02-21T07:36:34;22.45;;;15.98;;
21107;SDS011;10712;52.944;9.098;2024-02-21T07:39:02;28.58;;;18.15;;
21107;SDS011;10712;52.944;9.098;2024-02-21T07:41:29;26.17;;;16.63;;
21107;SDS011;10712;52.944;9.098;2024-02-21T07:43:55;23.65;;;17.02;;
21107;SDS011;10712;52.944;9.098;2024-02-21T07:46:21;23.35;;;16.45;;
21107;SDS011;10712;52.944;9.098;2024-02-21T07:48:47;25.45;;;18.38;;
21107;SDS011;10712;52.944;9.098;2024-02-21T07:51:14;26.88;;;17.52;;
21107;SDS011;10712;52.944;9.098;2024-02-21T07:53:43;26.95;;;17.15;;
21107;SDS011;10712;52.944;9.098;2024-02-21T07:56:13;21.55;;;16.02;;
21107;SDS011;10712;52.944;9.098;2024-02-21T07:58:40;30.60;;;18.35;;
21107;SDS011;10712;52.944;9.098;2024-02-21T08:01:06;36.10;;;23.98;;
21107;SDS011;10712;52.944;9.098;2024-02-21T08:03:33;48.75;;;26.92;;
21107;SDS011;10712;52.944;9.098;2024-02-21T08:05:59;33.38;;;22.52;;
21107;SDS011;10712;52.944;9.098;2024-02-21T08:08:25;40.15;;;25.05;;
21107;SDS011;10712;52.944;9.098;2024-02-21T08:10:51;39.00;;;26.73;;
21107;SDS011;10712;52.944;9.098;2024-02-21T08:13:17;36.72;;;21.90;;
21107;SDS011;10712;52.944;9.098;2024-02-21T08:15:43;32.50;;;21.08;;
21107;SDS011;10712;52.944;9.098;2024-02-21T08:18:09;25.83;;;18.50;;
21107;SDS011;10712;52.944;9.098;2024-02-21T08:20:35;27.48;;;17.95;;
21107;SDS011;10712;52.944;9.098;2024-02-21T08:23:01;34.63;;;18.50;;
21107;SDS011;10712;52.944;9.098;2024-02-21T08:25:27;31.77;;;21.05;;
21107;SDS011;10712;52.944;9.098;2024-02-21T08:27:59;38.45;;;23.10;;
21107;SDS011;10712;52.944;9.098;2024-02-21T08:30:25;32.95;;;19.20;;
21107;SDS011;10712;52.944;9.098;2024-02-21T08:32:51;27.75;;;19.10;;
21107;SDS011;10712;52.944;9.098;2024-02-21T08:35:19;29.30;;;19.50;;
21107;SDS011;10712;52.944;9.098;2024-02-21T08:37:47;29.30;;;19.85;;
21107;SDS011;10712;52.944;9.098;2024-02-21T08:40:13;31.95;;;19.08;;
21107;SDS011;10712;52.944;9.098;2024-02-21T08:42:42;29.17;;;18.35;;
21107;SDS011;10712;52.944;9.098;2024-02-21T08:45:09;29.88;;;19.15;;
21107;SDS011;10712;52.944;9.098;2024-02-21T08:47:35;29.08;;;17.77;;
21107;SDS011;10712;52.944;9.098;2024-02-21T08:50:04;29.98;;;16.58;;
21107;SDS011;10712;52.944;9.098;2024-02-21T08:52:31;25.50;;;17.17;;
21107;SDS011;10712;52.944;9.098;2024-02-21T08:54:57;32.42;;;18.33;;
21107;SDS011;10712;52.944;9.098;2024-02-21T08:57:23;30.98;;;16.95;;
21107;SDS011;10712;52.944;9.098;2024-02-21T08:59:49;29.58;;;16.33;;
21107;SDS011;10712;52.944;9.098;2024-02-21T09:02:15;23.73;;;15.30;;
21107;SDS011;10712;52.944;9.098;2024-02-21T09:04:41;24.08;;;15.40;;
21107;SDS011;10712;52.944;9.098;2024-02-21T09:07:07;24.15;;;15.75;;
21107;SDS011;10712;52.944;9.098;2024-02-21T09:09:33;20.98;;;14.57;;
21107;SDS011;10712;52.944;9.098;2024-02-21T09:11:59;27.35;;;15.05;;
21107;SDS011;10712;52.944;9.098;2024-02-21T09:14:31;29.33;;;15.75;;
21107;SDS011;10712;52.944;9.098;2024-02-21T09:16:58;29.90;;;14.98;;
21107;SDS011;10712;52.944;9.098;2024-02-21T09:19:24;22.38;;;14.70;;
21107;SDS011;10712;52.944;9.098;2024-02-21T09:21:50;24.13;;;15.40;;
21107;SDS011;10712;52.944;9.098;2024-02-21T09:24:17;21.75;;;14.07;;
21107;SDS011;10712;52.944;9.098;2024-02-21T09:26:43;24.85;;;15.30;;
21107;SDS011;10712;52.944;9.098;2024-02-21T09:29:09;25.50;;;14.75;;
21107;SDS011;10712;52.944;9.098;2024-02-21T09:31:35;28.55;;;15.68;;
21107;SDS011;10712;52.944;9.098;2024-02-21T09:34:01;23.58;;;14.43;;
21107;SDS011;10712;52.944;9.098;2024-02-21T09:36:27;26.50;;;14.00;;
21107;SDS011;10712;52.944;9.098;2024-02-21T09:38:53;23.35;;;14.15;;
21107;SDS011;10712;52.944;9.098;2024-02-21T09:41:26;25.77;;;14.80;;
21107;SDS011;10712;52.944;9.098;2024-02-21T09:43:55;20.23;;;14.57;;
21107;SDS011;10712;52.944;9.098;2024-02-21T09:46:30;21.88;;;14.25;;
21107;SDS011;10712;52.944;9.098;2024-02-21T09:49:26;23.13;;;14.18;;
21107;SDS011;10712;52.944;9.098;2024-02-21T09:52:01;31.65;;;14.63;;
21107;SDS011;10712;52.944;9.098;2024-02-21T09:54:29;24.48;;;14.32;;
21107;SDS011;10712;52.944;9.098;2024-02-21T09:57:01;21.80;;;14.35;;
21107;SDS011;10712;52.944;9.098;2024-02-21T09:59:30;27.70;;;14.10;;
21107;SDS011;10712;52.944;9.098;2024-02-21T10:01:57;26.23;;;14.35;;
21107;SDS011;10712;52.944;9.098;2024-02-21T10:04:27;24.83;;;14.68;;
21107;SDS011;10712;52.944;9.098;2024-02-21T10:06:54;24.25;;;13.90;;
21107;SDS011;10712;52.944;9.098;2024-02-21T10:09:23;25.35;;;15.02;;
21107;SDS011;10712;52.944;9.098;2024-02-21T10:11:55;20.95;;;14.05;;
21107;SDS011;10712;52.944;9.098;2024-02-21T10:14:32;35.05;;;20.80;;
21107;SDS011;10712;52.944;9.098;2024-02-21T10:16:58;32.83;;;17.20;;
21107;SDS011;10712;52.944;9.098;2024-02-21T10:19:24;20.48;;;14.23;;
21107;SDS011;10712;52.944;9.098;2024-02-21T10:24:35;21.75;;;12.73;;
21107;SDS011;10712;52.944;9.098;2024-02-21T10:27:07;20.52;;;12.07;;
21107;SDS011;10712;52.944;9.098;2024-02-21T10:29:36;21.60;;;11.45;;
21107;SDS011;10712;52.944;9.098;2024-02-21T10:32:06;23.23;;;12.52;;
21107;SDS011;10712;52.944;9.098;2024-02-21T10:34:40;17.92;;;11.43;;
21107;SDS011;10712;52.944;9.098;2024-02-21T10:37:08;24.05;;;11.55;;
21107;SDS011;10712;52.944;9.098;2024-02-21T10:39:38;19.60;;;11.38;;
21107;SDS011;10712;52.944;9.098;2024-02-21T10:42:06;26.50;;;18.67;;
21107;SDS011;10712;52.944;9.098;2024-02-21T10:44:37;113.72;;;79.97;;
21107;SDS011;10712;52.944;9.098;2024-02-21T10:47:07;20.08;;;13.18;;
21107;SDS011;10712;52.944;9.098;2024-02-21T10:49:37;26.63;;;12.10;;
21107;SDS011;10712;52.944;9.098;2024-02-21T10:55:21;15.32;;;10.75;;
21107;SDS011;10712;52.944;9.098;2024-02-21T10:58:06;17.02;;;11.25;;
21107;SDS011;10712;52.944;9.098;2024-02-21T11:00:35;17.35;;;12.00;;
21107;SDS011;10712;52.944;9.098;2024-02-21T11:03:02;22.08;;;12.18;;
21107;SDS011;10712;52.944;9.098;2024-02-21T11:05:29;17.00;;;12.63;;
21107;SDS011;10712;52.944;9.098;2024-02-21T11:07:58;19.13;;;12.20;;
21107;SDS011;10712;52.944;9.098;2024-02-21T11:10:24;18.73;;;11.82;;
21107;SDS011;10712;52.944;9.098;2024-02-21T11:13:05;20.70;;;12.57;;
21107;SDS011;10712;52.944;9.098;2024-02-21T11:15:34;15.93;;;12.07;;
21107;SDS011;10712;52.944;9.098;2024-02-21T11:18:00;20.92;;;12.80;;
21107;SDS011;10712;52.944;9.098;2024-02-21T11:20:32;17.30;;;12.45;;
21107;SDS011;10712;52.944;9.098;2024-02-21T11:23:02;27.38;;;16.95;;
21107;SDS011;10712;52.944;9.098;2024-02-21T11:25:28;25.75;;;16.73;;
21107;SDS011;10712;52.944;9.098;2024-02-21T11:27:59;22.63;;;13.65;;
21107;SDS011;10712;52.944;9.098;2024-02-21T11:30:32;21.60;;;12.37;;
21107;SDS011;10712;52.944;9.098;2024-02-21T11:35:35;15.48;;;10.70;;
21107;SDS011;10712;52.944;9.098;2024-02-21T11:38:08;20.33;;;11.68;;
21107;SDS011;10712;52.944;9.098;2024-02-21T11:40:44;20.65;;;11.35;;
21107;SDS011;10712;52.944;9.098;2024-02-21T11:43:11;16.38;;;11.57;;
21107;SDS011;10712;52.944;9.098;2024-02-21T11:45:37;18.63;;;11.52;;
21107;SDS011;10712;52.944;9.098;2024-02-21T11:48:07;16.50;;;11.50;;
21107;SDS011;10712;52.944;9.098;2024-02-21T11:50:36;16.08;;;10.98;;
21107;SDS011;10712;52.944;9.098;2024-02-21T11:53:04;15.90;;;9.47;;
21107;SDS011;10712;52.944;9.098;2024-02-21T11:55:30;19.70;;;10.27;;
21107;SDS011;10712;52.944;9.098;2024-02-21T11:57:56;13.63;;;8.50;;
21107;SDS011;10712;52.944;9.098;2024-02-21T12:00:22;14.52;;;9.15;;
21107;SDS011;10712;52.944;9.098;2024-02-21T12:02:52;11.93;;;8.20;;
21107;SDS011;10712;52.944;9.098;2024-02-21T12:05:20;12.02;;;7.93;;
21107;SDS011;10712;52.944;9.098;2024-02-21T12:07:46;13.80;;;6.85;;
21107;SDS011;10712;52.944;9.098;2024-02-21T12:10:12;14.57;;;7.22;;
21107;SDS011;10712;52.944;9.098;2024-02-21T12:12:39;11.20;;;7.00;;
21107;SDS011;10712;52.944;9.098;2024-02-21T12:15:05;8.80;;;5.93;;
21107;SDS011;10712;52.944;9.098;2024-02-21T12:17:35;11.65;;;5.70;;
21107;SDS011;10712;52.944;9.098;2024-02-21T12:20:05;13.55;;;6.95;;
21107;SDS011;10712;52.944;9.098;2024-02-21T12:22:36;12.35;;;6.43;;
21107;SDS011;10712;52.944;9.098;2024-02-21T12:25:36;8.18;;;4.97;;
21107;SDS011;10712;52.944;9.098;2024-02-21T12:27:55;11.90;;;4.85;;
21107;SDS011;10712;52.944;9.098;2024-02-21T12:30:21;8.23;;;4.72;;
21107;SDS011;10712;52.944;9.098;2024-02-21T12:32:47;7.82;;;5.07;;
21107;SDS011;10712;52.944;9.098;2024-02-21T12:35:13;8.20;;;4.45;;
21107;SDS011;10712;52.944;9.098;2024-02-21T12:37:39;9.27;;;4.70;;
21107;SDS011;10712;52.944;9.098;2024-02-21T12:40:06;9.55;;;4.38;;
21107;SDS011;10712;52.944;9.098;2024-02-21T12:42:35;7.75;;;4.32;;
21107;SDS011;10712;52.944;9.098;2024-02-21T12:45:02;6.47;;;3.83;;
21107;SDS011;10712;52.944;9.098;2024-02-21T12:47:28;26.45;;;16.63;;
21107;SDS011;10712;52.944;9.098;2024-02-21T12:49:54;11.10;;;5.45;;
21107;SDS011;10712;52.944;9.098;2024-02-21T12:52:20;6.97;;;4.22;;
21107;SDS011;10712;52.944;9.098;2024-02-21T12:54:46;9.55;;;4.93;;
21107;SDS011;10712;52.944;9.098;2024-02-21T12:57:12;7.72;;;4.78;;
21107;SDS011;10712;52.944;9.098;2024-02-21T12:59:38;6.35;;;4.97;;
21107;SDS011;10712;52.944;9.098;2024-02-21T13:02:05;6.85;;;4.47;;
21107;SDS011;10712;52.944;9.098;2024-02-21T13:04:31;7.05;;;4.72;;
21107;SDS011;10712;52.944;9.098;2024-02-21T13:06:57;9.55;;;5.18;;
21107;SDS011;10712;52.944;9.098;2024-02-21T13:09:23;8.45;;;5.50;;
21107;SDS011;10712;52.944;9.098;2024-02-21T13:11:48;8.52;;;5.53;;
21107;SDS011;10712;52.944;9.098;2024-02-21T13:14:16;9.90;;;5.93;;
21107;SDS011;10712;52.944;9.098;2024-02-21T13:16:42;8.63;;;5.25;;
21107;SDS011;10712;52.944;9.098;2024-02-21T13:19:08;8.55;;;5.40;;
21107;SDS011;10712;52.944;9.098;2024-02-21T13:21:34;7.65;;;5.50;;
21107;SDS011;10712;52.944;9.098;2024-02-21T13:24:00;10.45;;;6.45;;
21107;SDS011;10712;52.944;9.098;2024-02-21T13:26:27;10.10;;;5.97;;
21107;SDS011;10712;52.944;9.098;2024-02-21T13:28:53;7.68;;;6.28;;
21107;SDS011;10712;52.944;9.098;2024-02-21T13:31:19;7.97;;;6.20;;
21107;SDS011;10712;52.944;9.098;2024-02-21T13:33:45;8.13;;;5.68;;
21107;SDS011;10712;52.944;9.098;2024-02-21T13:36:11;7.30;;;5.75;;
21107;SDS011;10712;52.944;9.098;2024-02-21T13:38:37;8.75;;;6.63;;
21107;SDS011;10712;52.944;9.098;2024-02-21T13:41:06;10.88;;;9.40;;
21107;SDS011;10712;52.944;9.098;2024-02-21T13:43:32;13.60;;;11.05;;
21107;SDS011;10712;52.944;9.098;2024-02-21T13:46:00;9.68;;;6.90;;
21107;SDS011;10712;52.944;9.098;2024-02-21T13:48:30;10.02;;;6.45;;
21107;SDS011;10712;52.944;9.098;2024-02-21T13:50:56;9.05;;;6.75;;
21107;SDS011;10712;52.944;9.098;2024-02-21T13:53:22;10.60;;;6.93;;
21107;SDS011;10712;52.944;9.098;2024-02-21T13:55:48;7.75;;;6.95;;
21107;SDS011;10712;52.944;9.098;2024-02-21T13:58:15;6.82;;;5.90;;
21107;SDS011;10712;52.944;9.098;2024-02-21T14:00:42;8.70;;;6.20;;
21107;SDS011;10712;52.944;9.098;2024-02-21T14:03:08;7.95;;;6.40;;
21107;SDS011;10712;52.944;9.098;2024-02-21T14:05:35;7.78;;;5.43;;
21107;SDS011;10712;52.944;9.098;2024-02-21T14:08:00;9.43;;;6.05;;
21107;SDS011;10712;52.944;9.098;2024-02-21T14:10:26;8.02;;;5.30;;
21107;SDS011;10712;52.944;9.098;2024-02-21T14:12:53;30.88;;;17.95;;
21107;SDS011;10712;52.944;9.098;2024-02-21T14:15:20;11.60;;;7.30;;
21107;SDS011;10712;52.944;9.098;2024-02-21T14:17:45;8.02;;;5.15;;
21107;SDS011;10712;52.944;9.098;2024-02-21T14:20:12;10.32;;;5.20;;
21107;SDS011;10712;52.944;9.098;2024-02-21T14:22:41;8.60;;;4.47;;
21107;SDS011;10712;52.944;9.098;2024-02-21T14:25:07;8.02;;;4.13;;
21107;SDS011;10712;52.944;9.098;2024-02-21T14:27:33;7.05;;;4.63;;
21107;SDS011;10712;52.944;9.098;2024-02-21T14:30:01;5.97;;;4.10;;
21107;SDS011;10712;52.944;9.098;2024-02-21T14:32:27;8.52;;;5.00;;
21107;SDS011;10712;52.944;9.098;2024-02-21T14:34:56;6.53;;;4.70;;
21107;SDS011;10712;52.944;9.098;2024-02-21T14:37:22;8.43;;;4.97;;
21107;SDS011;10712;52.944;9.098;2024-02-21T14:39:47;8.40;;;4.80;;
21107;SDS011;10712;52.944;9.098;2024-02-21T14:42:13;7.55;;;4.90;;